Webcam 1 more information Webcam 1


Webcam 2 more information Webcam 2


altri nostri siti meteo:

Pomeziameteo 1Sito sul meteo

Pomeziameteo DashboardSito sul meteo

Caput FrigorisSito sul meteo

BarcellonameteoSito sul meteo

MeteoipassiSito sul meteo

ViterbometeoSito sul meteo

MeteotortoretoSito sul meteo

Stazione LineameteoSito sul meteo



Nessuna attenzione particolare richiesta.    Non ci sono allerte meteo

Notice: Undefined offset: 6 in /web/htdocs/www.castelnuovovomanometeo.it/home/weather28/metar/metarDisplay.php on line 76

Notice: Undefined offset: 5 in /web/htdocs/www.castelnuovovomanometeo.it/home/weather28/metar/metarDisplay.php on line 76

Report METAR

   
LIBP - Pescara
Dati ricevuti: 06-06-2020 19:50
Parzialmente nuvoloso  
Parzialmente nuvoloso  
   Vento: NE 7.4 km/h
Vento: NE 7.4 km/h
Temperatura: 23°C
P.to Rugiada: 14°C
Umidita: 57%
Barometro: 1007 hPa
Nuvole: Parzialmente nuvoloso
Visibilita: oltre 10 km
dettagli cloud: Parzialmente nuvoloso 7900 ft
LIBP 061750Z AUTO 06004KT 9999 SCT079/// 23/14 Q1007
LIRZ - Perugia
Dati ricevuti: 06-06-2020 19:50
Poche nuvole  
Poche nuvole  
   Vento: West 13 km/h
Vento: West 13 km/h
Temperatura: 24°C
P.to Rugiada: 14°C
Umidita: 54%
Barometro: 1008 hPa
Nuvole: Poche nuvole
Visibilita: oltre 10 km
dettagli cloud: Poche nuvole 4000 ft
LIRZ 061750Z 28007KT 9999 FEW040 24/14 Q1008
LIQN - Rieti
Dati ricevuti: 06-06-2020 19:50
Sereno  
Sereno  
   Vento: West 7.4 km/h
Vento: West 7.4 km/h
Temperatura: 23°C
P.to Rugiada: 14°C
Umidita: 57%
Barometro: 1008 hPa
Visibilita: oltre 10 km
dettagli cloud: Sereno
LIQN 061750Z 27004KT CAVOK 23/14 Q1008
LIPY - Falconara
Dati ricevuti: 06-06-2020 19:50
Sereno  
Sereno  
   Vento: SE 9.3 km/h
Vento: SE 9.3 km/h
Temperatura: 24°C
P.to Rugiada: 12°C
Umidita: 47%
Barometro: 1006 hPa
Nuvole: Sereno
Visibilita: oltre 10 km
dettagli cloud: Sereno
LIPY 061750Z AUTO 14005KT 090V180 9999 // NCD 24/12 Q1006
  

Script sviluppato da  Saratoga-weather.org Adattato per il modello da  Weerstation Leuven

Potete trovare le nostre info meteo anche a:

Weather Underground

AWEKAS

Citizen Weather Observer Program (CWOP)

HAMweather, WeatherForYou, PWS Weather

Strumentazione usata:

Stazione meteo
Oregon 928

Programma gestore dati meteo
WVIEW

Server per i dati meteo
Pc-WDS5

Oregon 928

WVIEW

Pc-WDS5